TimeAKDT,TemperatureF,Dew PointF,Humidity,Sea Level PressureIn,VisibilityMPH,Wind Direction,Wind SpeedMPH,Gust SpeedMPH,PrecipitationIn,Events,Conditions,WindDirDegrees,DateUTC
12:53 AM,30.0,28.0,92,30.12,10.0,North,3.5,-,N/A,,Overcast,350,2013-05-06 08:53:00
1:53 AM,28.9,27.0,92,30.14,10.0,NNW,5.8,-,N/A,,Overcast,330,2013-05-06 09:53:00
2:53 AM,28.9,28.0,96,30.14,10.0,North,6.9,-,N/A,,Overcast,10,2013-05-06 10:53:00
3:53 AM,28.9,27.0,92,30.14,10.0,NNE,8.1,-,N/A,,Overcast,30,2013-05-06 11:53:00
4:25 AM,28.0,26.1,92,30.07,10.0,North,3.5,-,N/A,,Overcast,350,2013-05-06 12:25:00
4:53 AM,28.0,26.1,92,30.15,10.0,NW,4.6,-,N/A,,Overcast,320,2013-05-06 12:53:00
5:53 AM,27.0,24.1,89,30.16,10.0,NNW,8.1,-,N/A,,Overcast,340,2013-05-06 13:53:00
6:01 AM,27.0,24.1,89,30.07,10.0,North,6.9,-,N/A,,Overcast,350,2013-05-06 14:01:00
6:53 AM,28.0,24.1,85,30.17,10.0,NNW,5.8,-,N/A,,Overcast,340,2013-05-06 14:53:00
7:53 AM,28.0,23.0,81,30.18,10.0,NNE,5.8,-,0.00,Snow,Light Snow,20,2013-05-06 15:53:00
8:53 AM,28.0,24.1,85,30.19,10.0,North,5.8,-,0.00,Snow,Light Snow,10,2013-05-06 16:53:00
9:53 AM,30.0,25.0,82,30.19,10.0,North,5.8,-,0.01,Snow,Light Snow,10,2013-05-06 17:53:00
10:53 AM,35.1,28.0,76,30.20,10.0,Calm,Calm,-,0.00,Snow,Light Snow,0,2013-05-06 18:53:00
11:53 AM,39.0,28.0,65,30.19,10.0,North,4.6,-,0.00,,Mostly Cloudy,360,2013-05-06 19:53:00
12:53 PM,39.9,26.1,58,30.18,10.0,North,4.6,-,N/A,,Mostly Cloudy,10,2013-05-06 20:53:00
1:53 PM,41.0,21.9,47,30.18,10.0,Calm,Calm,-,N/A,,Mostly Cloudy,0,2013-05-06 21:53:00
2:53 PM,41.0,23.0,49,30.18,10.0,South,4.6,-,N/A,,Mostly Cloudy,190,2013-05-06 22:53:00
3:53 PM,42.1,25.0,51,30.18,10.0,North,4.6,-,N/A,,Mostly Cloudy,360,2013-05-06 23:53:00
4:53 PM,42.1,24.1,49,30.18,10.0,North,8.1,-,0.00,,Mostly Cloudy,350,2013-05-07 00:53:00
5:53 PM,42.1,24.1,49,30.17,10.0,North,4.6,-,N/A,,Overcast,360,2013-05-07 01:53:00
6:23 PM,41.0,27.0,57,30.11,10.0,SE,6.9,-,0.00,Rain,Light Ice Pellets,140,2013-05-07 02:23:00
6:27 PM,41.0,27.0,57,30.11,10.0,SE,10.4,-,0.00,Rain,Light Rain,140,2013-05-07 02:27:00
6:53 PM,41.0,27.0,57,30.18,10.0,East,4.6,-,0.00,,Overcast,100,2013-05-07 02:53:00
7:53 PM,39.0,28.0,65,30.19,10.0,SSE,8.1,-,N/A,,Overcast,160,2013-05-07 03:53:00
8:53 PM,39.0,27.0,62,30.19,10.0,NW,4.6,-,N/A,,Overcast,320,2013-05-07 04:53:00
9:27 PM,37.9,28.0,68,30.13,10.0,WNW,3.5,-,N/A,,Overcast,300,2013-05-07 05:27:00
9:53 PM,36.0,28.9,76,30.22,10.0,NNW,5.8,-,N/A,,Overcast,330,2013-05-07 05:53:00
10:53 PM,35.1,30.9,85,30.24,10.0,NNE,10.4,-,N/A,,Overcast,20,2013-05-07 06:53:00
11:05 PM,33.1,30.0,89,30.17,2.5,NNE,9.2,-,0.00,Snow,Light Snow,20,2013-05-07 07:05:00
11:22 PM,33.1,30.9,92,30.18,2.5,North,8.1,-,0.00,Snow,Light Snow,360,2013-05-07 07:22:00
11:33 PM,32.0,30.0,92,30.18,3.0,NNE,6.9,-,0.00,Snow,Light Snow,20,2013-05-07 07:33:00
11:40 PM,32.0,30.0,92,30.18,3.0,North,6.9,-,0.00,Snow,Light Snow,10,2013-05-07 07:40:00
11:53 PM,32.0,30.0,92,30.25,5.0,NE,8.1,-,0.00,Snow,Light Snow,40,2013-05-07 07:53:00